Time;durP1;ratioP1;P1;durP2;ratioP2;P2;SDS_P1;SDS_P2;PMS_P1;PMS_P2;Temp;Humidity;BMP_temperature;BMP_pressure;BME280_temperature;BME280_humidity;BME280_pressure;Samples;Min_cycle;Max_cycle;Signal;HPM_P1;HPM_P2
2020/12/23 00:01:59;190392.00;0.63;329.38;0.00;0.00;0.62;;;;;15.60;1.00;;;;;;2280283;61;1693;-88
2020/12/23 00:04:26;168309.00;0.56;291.35;0.00;0.00;0.62;;;;;15.40;1.00;;;;;;2280171;61;1765;-89
2020/12/23 00:06:52;211448.00;0.70;365.63;29814.00;0.10;52.26;;;;;15.60;1.00;;;;;;2280147;61;2006;-88
2020/12/23 00:09:19;294634.00;0.98;508.70;0.00;0.00;0.62;;;;;15.70;1.00;;;;;;2280249;61;1704;-88
2020/12/23 00:11:50;260880.00;0.87;450.66;45482.00;0.15;79.37;;;;;16.00;1.00;;;;;;2280247;61;1008;-89
2020/12/23 00:14:17;173709.00;0.58;300.66;0.00;0.00;0.62;;;;;16.20;1.00;;;;;;2280315;61;966;-88
2020/12/23 00:16:44;460083.00;1.53;793.13;0.00;0.00;0.62;;;;;16.30;1.00;;;;;;2280266;61;1299;-89
2020/12/23 00:19:11;250738.00;0.84;433.22;0.00;0.00;0.62;;;;;16.40;1.00;;;;;;2280220;61;1758;-88
2020/12/23 00:21:37;285564.00;0.95;493.10;0.00;0.00;0.62;;;;;16.60;1.00;;;;;;2280245;61;1713;-88
2020/12/23 00:24:04;290592.00;0.97;501.75;0.00;0.00;0.62;;;;;16.90;1.00;;;;;;2280259;61;905;-87
2020/12/23 00:26:31;238713.00;0.80;412.54;0.00;0.00;0.62;;;;;16.80;1.00;;;;;;2280130;61;2005;-88
2020/12/23 00:28:57;170827.00;0.57;295.69;0.00;0.00;0.62;;;;;16.70;1.00;;;;;;2280243;61;1584;-88
2020/12/23 00:31:24;71995.00;0.24;125.21;0.00;0.00;0.62;;;;;16.60;1.00;;;;;;2280195;61;1674;-88
2020/12/23 00:33:53;280944.00;0.94;485.16;0.00;0.00;0.62;;;;;16.40;1.00;;;;;;2280217;61;1616;-88
2020/12/23 00:36:19;119436.00;0.40;207.11;0.00;0.00;0.62;;;;;16.30;1.00;;;;;;2280170;61;1784;-89
2020/12/23 00:38:46;408186.00;1.36;703.88;73240.00;0.24;127.36;;;;;16.20;1.00;;;;;;2280215;61;1394;-88
2020/12/23 00:41:13;209490.00;0.70;362.26;0.00;0.00;0.62;;;;;16.10;1.00;;;;;;2276630;61;1808;-89
2020/12/23 00:43:40;214211.00;0.71;370.38;0.00;0.00;0.62;;;;;16.00;1.00;;;;;;2280177;61;1931;-89
2020/12/23 00:46:11;155611.00;0.52;269.48;0.00;0.00;0.62;;;;;15.90;1.00;;;;;;2280214;61;1996;-89
2020/12/23 00:48:38;233130.00;0.78;402.93;0.00;0.00;0.62;;;;;15.70;1.00;;;;;;2280466;61;1474;-88
2020/12/23 00:51:09;177086.00;0.59;306.47;0.00;0.00;0.62;;;;;15.70;1.00;;;;;;2280841;61;1671;-89
2020/12/23 00:53:36;155397.00;0.52;269.11;0.00;0.00;0.62;;;;;15.70;1.00;;;;;;2280793;61;1628;-88
2020/12/23 00:56:03;226002.00;0.75;390.67;8174.00;0.03;14.79;;;;;15.80;1.00;;;;;;2280813;61;1627;-88
2020/12/23 00:58:29;346707.00;1.16;598.20;21954.00;0.07;38.65;;;;;15.90;1.00;;;;;;2280758;61;1747;-88
2020/12/23 01:00:57;104898.00;0.35;182.03;0.00;0.00;0.62;;;;;16.00;1.00;;;;;;2280938;61;1005;-89
2020/12/23 01:03:23;171407.00;0.57;296.69;0.00;0.00;0.62;;;;;15.80;1.00;;;;;;2280814;61;1708;-86
2020/12/23 01:05:50;162166.00;0.54;280.77;15983.00;0.05;28.31;;;;;15.70;1.00;;;;;;2280825;61;1591;-86
2020/12/23 01:08:18;187098.00;0.62;323.71;0.00;0.00;0.62;;;;;15.60;1.00;;;;;;2280716;61;1936;-87
2020/12/23 01:10:45;151333.00;0.50;262.10;0.00;0.00;0.62;;;;;15.50;1.00;;;;;;2280912;61;990;-89
2020/12/23 01:13:12;79729.00;0.27;138.57;0.00;0.00;0.62;;;;;15.80;1.00;;;;;;2280821;61;1726;-87
2020/12/23 01:15:38;161153.00;0.54;279.03;0.00;0.00;0.62;;;;;16.00;1.00;;;;;;2280812;61;1098;-87
2020/12/23 01:18:05;178493.00;0.59;308.89;0.00;0.00;0.62;;;;;16.30;1.00;;;;;;2280851;61;1430;-86
2020/12/23 01:20:32;184632.00;0.62;319.47;0.00;0.00;0.62;;;;;16.50;1.00;;;;;;2280799;61;1728;-87
2020/12/23 01:22:59;154352.00;0.51;267.31;0.00;0.00;0.62;;;;;16.50;1.00;;;;;;2280726;61;1614;-88
2020/12/23 01:25:29;172417.00;0.57;298.43;0.00;0.00;0.62;;;;;16.30;1.00;;;;;;2280673;61;1738;-86
2020/12/23 01:27:56;26732.00;0.09;46.93;0.00;0.00;0.62;;;;;16.30;1.00;;;;;;2280669;61;1996;-86
2020/12/23 01:30:23;188881.00;0.63;326.78;27744.00;0.09;48.68;;;;;16.30;1.00;;;;;;2280723;61;1709;-87
2020/12/23 01:32:49;303868.00;1.01;524.57;50018.00;0.17;87.22;;;;;16.30;1.00;;;;;;2280840;61;953;-87
2020/12/23 01:35:16;22814.00;0.08;40.14;0.00;0.00;0.62;;;;;16.10;1.00;;;;;;2280787;61;964;-87
2020/12/23 01:37:43;197125.00;0.66;340.97;0.00;0.00;0.62;;;;;15.80;1.00;;;;;;2280650;61;1738;-87
2020/12/23 01:40:09;159632.00;0.53;276.41;0.00;0.00;0.62;;;;;15.90;1.00;;;;;;2280744;61;1127;-87
2020/12/23 01:42:37;177128.00;0.59;306.54;0.00;0.00;0.62;;;;;15.70;1.00;;;;;;2280674;61;1723;-87
2020/12/23 01:45:05;112735.00;0.38;195.55;0.00;0.00;0.62;;;;;15.60;1.00;;;;;;2280770;61;1251;-87
2020/12/23 01:47:34;132605.00;0.44;229.82;0.00;0.00;0.62;;;;;15.70;1.00;;;;;;2280633;61;2018;-87
2020/12/23 01:50:01;164664.00;0.55;285.07;0.00;0.00;0.62;;;;;15.80;1.00;;;;;;2280707;61;1750;-87
2020/12/23 01:52:29;159451.00;0.53;276.09;0.00;0.00;0.62;;;;;15.70;1.00;;;;;;2280739;61;1626;-88
2020/12/23 01:54:56;117368.00;0.39;203.54;0.00;0.00;0.62;;;;;15.50;1.00;;;;;;2280720;61;981;-87
2020/12/23 02:07:21;575684.00;1.92;992.25;75247.00;0.25;130.83;;;;;16.20;1.00;;;;;;2286115;60;1894;-90
2020/12/23 02:14:43;570771.00;1.90;983.78;0.00;0.00;0.62;;;;;16.90;1.00;;;;;;2282069;61;1398;-88
2020/12/23 02:17:10;130889.00;0.44;226.86;0.00;0.00;0.62;;;;;17.20;1.00;;;;;;2280603;61;1452;-89
2020/12/23 02:19:49;252725.00;0.84;436.64;26128.00;0.09;45.88;;;;;17.30;1.00;;;;;;2276733;61;957;-89
2020/12/23 02:22:18;9061.00;0.03;16.32;0.00;0.00;0.62;;;;;17.30;1.00;;;;;;2280614;61;1023;-90
2020/12/23 02:24:46;81011.00;0.27;140.78;0.00;0.00;0.62;;;;;17.40;1.00;;;;;;2271823;61;1042;-89
2020/12/23 02:27:13;263349.00;0.88;454.91;35112.00;0.12;61.43;;;;;17.50;1.00;;;;;;2271982;61;2010;-91
2020/12/23 02:29:42;167399.00;0.56;289.79;0.00;0.00;0.62;;;;;17.50;1.00;;;;;;2272021;61;1123;-90
2020/12/23 02:32:09;131233.00;0.44;227.46;0.00;0.00;0.62;;;;;17.60;1.00;;;;;;2271954;61;941;-90
2020/12/23 02:34:36;159756.00;0.53;276.62;0.00;0.00;0.62;;;;;17.70;1.00;;;;;;2272137;61;931;-87
2020/12/23 02:37:03;168102.00;0.56;291.00;16505.00;0.06;29.22;;;;;17.70;1.00;;;;;;2271990;61;1301;-88
2020/12/23 02:39:30;16913.00;0.06;29.92;0.00;0.00;0.62;;;;;17.80;1.00;;;;;;2263827;61;982;-88
2020/12/23 02:41:58;24926.00;0.08;43.80;0.00;0.00;0.62;;;;;17.90;1.00;;;;;;2265136;61;1046;-88
2020/12/23 02:44:25;0.00;0.00;0.62;0.00;0.00;0.62;;;;;17.90;1.00;;;;;;2272071;61;1044;-86
2020/12/23 02:46:57;241925.00;0.81;418.06;0.00;0.00;0.62;;;;;18.00;1.00;;;;;;2271971;61;1983;-87
2020/12/23 02:49:24;382003.00;1.27;658.87;146424.00;0.49;253.64;;;;;18.00;1.00;;;;;;2262075;61;998;-90
2020/12/23 02:51:50;42729.00;0.14;74.61;0.00;0.00;0.62;;;;;18.00;1.00;;;;;;2265224;61;950;-89
2020/12/23 02:54:17;129985.00;0.43;225.30;0.00;0.00;0.62;;;;;17.90;1.00;;;;;;2271942;61;1031;-88
2020/12/23 02:56:44;14314.00;0.05;25.42;0.00;0.00;0.62;;;;;17.60;1.00;;;;;;2266570;61;1377;-90
2020/12/23 02:59:11;59390.00;0.20;103.42;0.00;0.00;0.62;;;;;17.60;1.00;;;;;;2273340;61;1039;-88
2020/12/23 03:01:38;0.00;0.00;0.62;0.00;0.00;0.62;;;;;17.50;1.00;;;;;;2280533;61;1022;-90
2020/12/23 03:04:05;0.00;0.00;0.62;0.00;0.00;0.62;;;;;17.40;1.00;;;;;;2280594;61;898;-89
2020/12/23 03:06:31;0.00;0.00;0.62;0.00;0.00;0.62;;;;;17.50;1.00;;;;;;2280489;61;1915;-89
2020/12/23 03:08:58;0.00;0.00;0.62;0.00;0.00;0.62;;;;;17.60;1.00;;;;;;2273388;61;1005;-89
2020/12/23 03:11:24;148178.00;0.49;256.67;0.00;0.00;0.62;;;;;17.70;1.00;;;;;;2273287;61;1005;-89
2020/12/23 03:13:51;170667.00;0.57;295.42;0.00;0.00;0.62;;;;;17.70;1.00;;;;;;2275816;61;1026;-88
2020/12/23 03:16:18;0.00;0.00;0.62;0.00;0.00;0.62;;;;;17.80;1.00;;;;;;2271836;61;971;-90
2020/12/23 03:18:45;1780.00;0.01;3.71;0.00;0.00;0.62;;;;;17.60;1.00;;;;;;2265126;61;1421;-90
2020/12/23 03:23:41;97935.00;0.33;170.01;0.00;0.00;0.62;;;;;17.70;1.00;;;;;;2285993;60;1399;-88
2020/12/23 03:26:08;70749.00;0.24;123.05;0.00;0.00;0.62;;;;;17.70;1.00;;;;;;2274158;60;954;-90
2020/12/23 03:28:35;0.00;0.00;0.62;0.00;0.00;0.62;;;;;17.70;1.00;;;;;;2284456;60;1928;-90
2020/12/23 03:31:02;0.00;0.00;0.62;0.00;0.00;0.62;;;;;17.80;1.00;;;;;;2284524;60;975;-89
2020/12/23 03:33:30;8654.00;0.03;15.62;0.00;0.00;0.62;;;;;17.70;1.00;;;;;;2271856;61;944;-90
2020/12/23 03:35:58;0.00;0.00;0.62;0.00;0.00;0.62;;;;;17.80;1.00;;;;;;2265168;61;1018;-91
2020/12/23 03:38:24;48430.00;0.16;84.47;0.00;0.00;0.62;;;;;17.90;1.00;;;;;;2271866;61;1447;-88
2020/12/23 03:40:51;0.00;0.00;0.62;0.00;0.00;0.62;;;;;17.90;1.00;;;;;;2271907;61;989;-89
2020/12/23 03:43:17;66439.00;0.22;115.61;0.00;0.00;0.62;;;;;18.00;1.00;;;;;;2271853;61;1031;-89
2020/12/23 03:45:44;74.00;0.00;0.75;0.00;0.00;0.62;;;;;18.00;1.00;;;;;;2268491;61;1009;-89
2020/12/23 03:48:10;58419.00;0.19;101.74;0.00;0.00;0.62;;;;;18.00;1.00;;;;;;2271757;61;1908;-89
2020/12/23 03:50:38;0.00;0.00;0.62;0.00;0.00;0.62;;;;;18.00;1.00;;;;;;2266657;60;941;-89
2020/12/23 03:53:05;32020.00;0.11;56.08;0.00;0.00;0.62;;;;;18.00;1.00;;;;;;2284542;60;995;-89
2020/12/23 03:55:32;14799.00;0.05;26.26;0.00;0.00;0.62;;;;;17.90;1.00;;;;;;2284565;60;905;-90
2020/12/23 03:57:58;0.00;0.00;0.62;0.00;0.00;0.62;;;;;17.80;1.00;;;;;;2277289;60;1435;-90
2020/12/23 04:00:25;0.00;0.00;0.62;0.00;0.00;0.62;;;;;17.90;1.00;;;;;;2277246;60;976;-91
2020/12/23 04:05:20;125218.00;0.42;217.08;0.00;0.00;0.62;;;;;17.70;1.00;;;;;;2285848;60;1385;-89
2020/12/23 04:07:47;6641.00;0.02;12.13;0.00;0.00;0.62;;;;;17.70;1.00;;;;;;2277099;60;2008;-89
2020/12/23 04:10:14;3237.00;0.01;6.23;0.00;0.00;0.62;;;;;17.70;1.00;;;;;;2284437;60;1009;-90
2020/12/23 04:12:41;131220.00;0.44;227.43;0.00;0.00;0.62;;;;;17.60;1.00;;;;;;2284380;60;923;-89
2020/12/23 04:15:10;0.00;0.00;0.62;0.00;0.00;0.62;;;;;17.60;1.00;;;;;;2284384;60;922;-89
2020/12/23 04:17:37;82817.00;0.28;143.90;0.00;0.00;0.62;;;;;17.60;1.00;;;;;;2284427;60;1433;-89
2020/12/23 04:20:04;0.00;0.00;0.62;0.00;0.00;0.62;;;;;17.60;1.00;;;;;;2277292;60;981;-89
2020/12/23 04:22:31;49215.00;0.16;85.83;0.00;0.00;0.62;;;;;17.60;1.00;;;;;;2271655;61;979;-89
2020/12/23 04:27:27;220761.00;0.74;381.65;0.00;0.00;0.62;;;;;17.40;1.00;;;;;;2282781;61;1908;-90
2020/12/23 04:29:53;0.00;0.00;0.62;0.00;0.00;0.62;;;;;17.40;1.00;;;;;;2277206;61;1015;-89
2020/12/23 04:32:20;23436.00;0.08;41.22;0.00;0.00;0.62;;;;;17.40;1.00;;;;;;2280981;61;931;-89
2020/12/23 04:34:46;85753.00;0.29;148.97;0.00;0.00;0.62;;;;;17.40;1.00;;;;;;2272309;61;1011;-88
2020/12/23 04:37:13;103290.00;0.34;179.25;0.00;0.00;0.62;;;;;17.50;1.00;;;;;;2272243;61;1431;-90
2020/12/23 04:39:40;175196.00;0.58;303.22;28081.00;0.09;49.26;;;;;17.60;1.00;;;;;;2272364;61;1033;-89
2020/12/23 04:42:06;11887.00;0.04;21.22;0.00;0.00;0.62;;;;;17.50;1.00;;;;;;2264183;61;1020;-90
2020/12/23 04:44:35;35559.00;0.12;62.20;0.00;0.00;0.62;;;;;17.50;1.00;;;;;;2264403;61;915;-90
2020/12/23 04:47:03;88822.00;0.30;154.27;0.00;0.00;0.62;;;;;17.20;1.00;;;;;;2254212;61;2003;-88
2020/12/23 04:49:36;0.00;0.00;0.62;0.00;0.00;0.62;;;;;17.30;1.00;;;;;;2264326;61;1028;-88
2020/12/23 04:52:05;149.00;0.00;0.88;0.00;0.00;0.62;;;;;17.30;1.00;;;;;;2258863;61;959;-88
2020/12/23 04:54:32;188482.00;0.63;326.09;58964.00;0.20;102.69;;;;;17.30;1.00;;;;;;2272427;61;1032;-90
2020/12/23 04:56:59;36653.00;0.12;64.10;0.00;0.00;0.62;;;;;17.20;1.00;;;;;;2262343;61;1436;-89
2020/12/23 04:59:27;0.00;0.00;0.62;0.00;0.00;0.62;;;;;17.40;1.00;;;;;;2263948;61;961;-90
2020/12/23 05:01:55;0.00;0.00;0.62;0.00;0.00;0.62;;;;;17.50;1.00;;;;;;2268089;61;1060;-89
2020/12/23 05:04:22;0.00;0.00;0.62;0.00;0.00;0.62;;;;;17.60;1.00;;;;;;2260183;61;970;-89
2020/12/23 05:09:17;278142.00;0.93;480.34;0.00;0.00;0.62;;;;;17.60;1.00;;;;;;2282712;61;1378;-88
2020/12/23 05:11:46;140246.00;0.47;242.99;0.00;0.00;0.62;;;;;17.70;1.00;;;;;;2280804;61;1010;-89
2020/12/23 05:14:13;118530.00;0.40;205.55;0.00;0.00;0.62;;;;;17.80;1.00;;;;;;2272120;61;975;-87
2020/12/23 05:16:41;94540.00;0.32;164.15;0.00;0.00;0.62;;;;;17.60;1.00;;;;;;2265519;61;1453;-89
2020/12/23 05:19:08;0.00;0.00;0.62;0.00;0.00;0.62;;;;;17.40;1.00;;;;;;2265523;61;1069;-87
2020/12/23 05:21:34;0.00;0.00;0.62;0.00;0.00;0.62;;;;;17.40;1.00;;;;;;2264077;61;979;-88
2020/12/23 05:28:59;240849.00;0.80;416.21;0.00;0.00;0.62;;;;;17.70;1.00;;;;;;2286650;60;1396;-87
2020/12/23 05:31:29;39410.00;0.13;68.87;0.00;0.00;0.62;;;;;17.80;1.00;;;;;;2284977;60;906;-87
2020/12/23 05:33:59;13240.00;0.04;23.56;0.00;0.00;0.62;;;;;17.80;1.00;;;;;;2284902;60;1036;-89
2020/12/23 05:36:27;28400.00;0.09;49.81;0.00;0.00;0.62;;;;;17.80;1.00;;;;;;2277757;60;1078;-88
2020/12/23 05:38:53;25462.00;0.08;44.73;0.00;0.00;0.62;;;;;17.80;1.00;;;;;;2284958;60;1317;-87
2020/12/23 05:41:21;0.00;0.00;0.62;0.00;0.00;0.62;;;;;17.90;1.00;;;;;;2276139;61;968;-88
2020/12/23 05:43:47;126471.00;0.42;219.24;37956.00;0.13;66.35;;;;;17.90;1.00;;;;;;2263918;61;982;-87
2020/12/23 05:46:13;234203.00;0.78;404.78;0.00;0.00;0.62;;;;;17.80;1.00;;;;;;2263980;61;1052;-89
2020/12/23 05:48:41;56706.00;0.19;98.78;0.00;0.00;0.62;;;;;17.80;1.00;;;;;;2264006;61;1928;-87
2020/12/23 05:51:09;0.00;0.00;0.62;0.00;0.00;0.62;;;;;17.70;1.00;;;;;;2264120;61;1020;-89
2020/12/23 05:53:39;209800.00;0.70;362.79;69126.00;0.23;120.25;;;;;17.70;1.00;;;;;;2264146;61;1029;-88
2020/12/23 05:56:07;39364.00;0.13;68.79;0.00;0.00;0.62;;;;;17.70;1.00;;;;;;2260656;61;1023;-90
2020/12/23 05:58:35;34780.00;0.12;60.86;0.00;0.00;0.62;;;;;17.60;1.00;;;;;;2265409;61;1493;-89
2020/12/23 06:01:05;0.00;0.00;0.62;0.00;0.00;0.62;;;;;17.70;1.00;;;;;;2274111;60;1068;-89
2020/12/23 06:03:52;78368.00;0.26;136.22;0.00;0.00;0.62;;;;;17.60;1.00;;;;;;2284861;60;1017;-90
2020/12/23 06:06:23;0.00;0.00;0.62;0.00;0.00;0.62;;;;;17.40;1.00;;;;;;2255888;61;967;-90
2020/12/23 06:08:53;8923.00;0.03;16.08;0.00;0.00;0.62;;;;;17.10;1.00;;;;;;2255991;61;1936;-90
2020/12/23 06:11:34;0.00;0.00;0.62;0.00;0.00;0.62;;;;;17.10;1.00;;;;;;2252622;61;1028;-89
2020/12/23 06:14:12;0.00;0.00;0.62;0.00;0.00;0.62;;;;;17.00;1.00;;;;;;2256133;61;1025;-91
2020/12/23 06:16:40;19631.00;0.07;34.63;0.00;0.00;0.62;;;;;17.00;1.00;;;;;;2256099;61;1448;-90
2020/12/23 06:19:09;60594.00;0.20;105.50;0.00;0.00;0.62;;;;;16.90;1.00;;;;;;2251998;61;954;-91
2020/12/23 06:21:36;125572.00;0.42;217.69;0.00;0.00;0.62;;;;;16.80;1.00;;;;;;2251991;61;1035;-89
2020/12/23 06:24:07;215637.00;0.72;372.84;0.00;0.00;0.62;;;;;16.90;1.00;;;;;;2246880;61;973;-91
2020/12/23 06:26:36;83509.00;0.28;145.10;0.00;0.00;0.62;;;;;16.80;1.00;;;;;;2255953;61;1290;-91
2020/12/23 06:29:05;113503.00;0.38;196.87;0.00;0.00;0.62;;;;;16.80;1.00;;;;;;2255818;61;1038;-90
2020/12/23 06:31:39;106762.00;0.36;185.24;15440.00;0.05;27.37;;;;;16.80;1.00;;;;;;2249317;61;981;-91
2020/12/23 06:34:05;42738.00;0.14;74.63;0.00;0.00;0.62;;;;;16.90;1.00;;;;;;2255954;61;1006;-89
2020/12/23 06:36:33;107237.00;0.36;186.06;0.00;0.00;0.62;;;;;16.90;1.00;;;;;;2251151;61;993;-90
2020/12/23 06:39:38;172977.00;0.58;299.39;0.00;0.00;0.62;;;;;16.90;1.00;;;;;;2257320;61;1019;-91
2020/12/23 06:42:35;0.00;0.00;0.62;0.00;0.00;0.62;;;;;17.00;1.00;;;;;;2252742;61;1055;-88
2020/12/23 06:45:10;0.00;0.00;0.62;0.00;0.00;0.62;;;;;17.00;1.00;;;;;;2268472;61;1079;-89
2020/12/23 06:47:38;0.00;0.00;0.62;0.00;0.00;0.62;;;;;17.20;1.00;;;;;;2268480;61;1923;-87
2020/12/23 06:50:07;2303.00;0.01;4.61;0.00;0.00;0.62;;;;;17.40;1.00;;;;;;2272035;61;1041;-88
2020/12/23 06:52:44;12181.00;0.04;21.73;0.00;0.00;0.62;;;;;17.60;1.00;;;;;;2271941;61;983;-88
2020/12/23 06:55:13;0.00;0.00;0.62;0.00;0.00;0.62;;;;;17.60;1.00;;;;;;2267750;61;1008;-90
2020/12/23 06:57:56;0.00;0.00;0.62;0.00;0.00;0.62;;;;;17.90;1.00;;;;;;2255665;61;1326;-88
2020/12/23 07:00:38;0.00;0.00;0.62;0.00;0.00;0.62;;;;;18.00;1.00;;;;;;2255818;61;938;-88
2020/12/23 07:03:11;13284.00;0.04;23.64;0.00;0.00;0.62;;;;;18.00;1.00;;;;;;2247808;61;985;-89
2020/12/23 07:05:45;18704.00;0.06;33.03;0.00;0.00;0.62;;;;;18.10;1.00;;;;;;2241322;61;1016;-89
2020/12/23 07:08:14;0.00;0.00;0.62;0.00;0.00;0.62;;;;;18.30;1.00;;;;;;2244494;61;2005;-89
2020/12/23 07:10:44;0.00;0.00;0.62;0.00;0.00;0.62;;;;;18.30;1.00;;;;;;2243703;61;979;-89
2020/12/23 07:13:13;38538.00;0.13;67.36;0.00;0.00;0.62;;;;;18.30;1.00;;;;;;2242299;61;962;-90
2020/12/23 07:15:41;78884.00;0.26;137.11;0.00;0.00;0.62;;;;;18.30;1.00;;;;;;2251520;61;1033;-88
2020/12/23 07:18:09;75168.00;0.25;130.69;0.00;0.00;0.62;;;;;18.30;1.00;;;;;;2252279;61;1452;-88
2020/12/23 07:20:40;167932.00;0.56;290.70;0.00;0.00;0.62;;;;;18.30;1.00;;;;;;2254462;61;1032;-88
2020/12/23 07:25:42;743586.00;2.48;1282.91;90881.00;0.30;157.83;;;;;18.30;1.00;;;;;;2286508;60;1408;-89
2020/12/23 07:30:40;398652.00;1.33;687.49;0.00;0.00;0.62;;;;;17.90;1.00;;;;;;2281806;61;1422;-90
2020/12/23 07:35:34;584670.00;1.95;1007.76;0.00;0.00;0.62;;;;;17.70;1.00;;;;;;2286495;60;1413;-90
2020/12/23 07:40:32;700079.00;2.33;1207.38;0.00;0.00;0.62;;;;;17.90;1.00;;;;;;2286365;60;1357;-88
2020/12/23 07:42:59;280812.00;0.94;484.93;0.00;0.00;0.62;;;;;17.90;1.00;;;;;;2273915;60;995;-89
2020/12/23 07:45:28;334984.00;1.12;578.05;0.00;0.00;0.62;;;;;18.00;1.00;;;;;;2284361;60;1047;-88
2020/12/23 07:47:57;115820.00;0.39;200.87;0.00;0.00;0.62;;;;;17.90;1.00;;;;;;2284359;60;1994;-88
2020/12/23 07:50:24;76741.00;0.26;133.41;0.00;0.00;0.62;;;;;17.80;1.00;;;;;;2280600;60;973;-89
2020/12/23 07:52:51;221225.00;0.74;382.45;0.00;0.00;0.62;;;;;17.80;1.00;;;;;;2284218;60;950;-89
2020/12/23 08:00:15;332644.00;1.11;574.03;87966.00;0.29;152.80;;;;;18.00;1.00;;;;;;2286670;60;1251;-87
2020/12/23 08:02:42;222469.00;0.74;384.59;0.00;0.00;0.62;;;;;18.10;1.00;;;;;;2284997;60;1111;-87
2020/12/23 08:05:10;316791.00;1.06;546.78;73145.00;0.24;127.19;;;;;18.20;1.00;;;;;;2285076;60;1086;-86
2020/12/23 08:07:41;274171.00;0.91;473.52;0.00;0.00;0.62;;;;;18.00;1.00;;;;;;2284996;60;2005;-84
2020/12/23 08:10:11;244604.00;0.82;422.67;0.00;0.00;0.62;;;;;18.10;1.00;;;;;;2285069;60;1024;-85
2020/12/23 08:12:38;199002.00;0.66;344.21;0.00;0.00;0.62;;;;;18.00;1.00;;;;;;2285103;60;963;-86
2020/12/23 08:15:12;263159.00;0.88;454.58;42976.00;0.14;75.04;;;;;18.10;1.00;;;;;;2285063;60;991;-84
2020/12/23 08:17:40;142273.00;0.47;246.49;0.00;0.00;0.62;;;;;18.10;1.00;;;;;;2284949;60;1671;-85
2020/12/23 08:20:11;102138.00;0.34;177.26;0.00;0.00;0.62;;;;;18.10;1.00;;;;;;2285056;60;1000;-86
2020/12/23 08:22:40;75461.00;0.25;131.20;0.00;0.00;0.62;;;;;18.20;1.00;;;;;;2285094;60;929;-86
2020/12/23 08:25:13;158700.00;0.53;274.80;15957.00;0.05;28.27;;;;;18.30;1.00;;;;;;2284966;60;1695;-85
2020/12/23 08:27:42;0.00;0.00;0.62;0.00;0.00;0.62;;;;;18.30;1.00;;;;;;2284993;60;1915;-85
2020/12/23 08:30:11;0.00;0.00;0.62;0.00;0.00;0.62;;;;;18.40;1.00;;;;;;2285045;60;993;-85
2020/12/23 08:32:44;21989.00;0.07;38.71;0.00;0.00;0.62;;;;;18.40;1.00;;;;;;2285018;60;1125;-86
2020/12/23 08:35:12;0.00;0.00;0.62;0.00;0.00;0.62;;;;;18.50;1.00;;;;;;2285024;60;930;-86
2020/12/23 08:37:39;0.00;0.00;0.62;0.00;0.00;0.62;;;;;18.60;1.00;;;;;;2284896;60;1817;-85
2020/12/23 08:40:07;0.00;0.00;0.62;0.00;0.00;0.62;;;;;18.70;1.00;;;;;;2285013;60;997;-85
2020/12/23 08:42:34;232277.00;0.77;401.47;41655.00;0.14;72.75;;;;;18.50;1.00;;;;;;2285004;60;1011;-84
2020/12/23 08:45:01;56398.00;0.19;98.25;0.00;0.00;0.62;;;;;18.50;1.00;;;;;;2284910;60;1761;-85
2020/12/23 08:47:32;0.00;0.00;0.62;0.00;0.00;0.62;;;;;18.50;1.00;;;;;;2284903;60;1907;-85
2020/12/23 08:50:00;35356.00;0.12;61.85;0.00;0.00;0.62;;;;;18.40;1.00;;;;;;2284916;60;1058;-85
2020/12/23 08:52:28;80241.00;0.27;139.45;0.00;0.00;0.62;;;;;18.30;1.00;;;;;;2284992;60;989;-85
2020/12/23 08:54:55;2502.00;0.01;4.96;0.00;0.00;0.62;;;;;18.20;1.00;;;;;;2284894;60;1934;-84
2020/12/23 08:57:28;48567.00;0.16;84.71;0.00;0.00;0.62;;;;;18.20;1.00;;;;;;2284948;60;1407;-85
2020/12/23 08:59:55;13187.00;0.04;23.47;0.00;0.00;0.62;;;;;18.40;1.00;;;;;;2284881;60;1576;-84
2020/12/23 09:02:22;58499.00;0.19;101.88;0.00;0.00;0.62;;;;;18.30;1.00;;;;;;2284961;60;910;-85
2020/12/23 09:04:49;0.00;0.00;0.62;0.00;0.00;0.62;;;;;18.30;1.00;;;;;;2284901;60;1133;-85
2020/12/23 09:07:22;0.00;0.00;0.62;0.00;0.00;0.62;;;;;18.30;1.00;;;;;;2284817;60;1915;-85
2020/12/23 09:09:50;0.00;0.00;0.62;0.00;0.00;0.62;;;;;18.20;1.00;;;;;;2284701;60;1058;-84
2020/12/23 09:12:21;121461.00;0.40;210.60;55472.00;0.18;96.65;;;;;18.10;1.00;;;;;;2284855;60;1085;-85
2020/12/23 09:14:47;38359.00;0.13;67.05;0.00;0.00;0.62;;;;;18.20;1.00;;;;;;2284828;60;1107;-85
2020/12/23 09:17:22;0.00;0.00;0.62;0.00;0.00;0.62;;;;;18.10;1.00;;;;;;2284858;60;1310;-86
2020/12/23 09:20:00;0.00;0.00;0.62;0.00;0.00;0.62;;;;;18.20;1.00;;;;;;2284818;60;1137;-85
2020/12/23 09:22:35;0.00;0.00;0.62;0.00;0.00;0.62;;;;;18.30;1.00;;;;;;2284902;60;1013;-85
2020/12/23 09:25:26;12394.00;0.04;22.10;0.00;0.00;0.62;;;;;18.50;1.00;;;;;;2284873;60;1066;-85
2020/12/23 09:27:54;0.00;0.00;0.62;0.00;0.00;0.62;;;;;18.50;1.00;;;;;;2280168;61;2005;-85
2020/12/23 09:30:31;0.00;0.00;0.62;0.00;0.00;0.62;;;;;18.50;1.00;;;;;;2280219;61;1144;-85
2020/12/23 09:32:58;8969.00;0.03;16.16;0.00;0.00;0.62;;;;;18.50;1.00;;;;;;2280011;61;1016;-85
2020/12/23 09:35:26;66590.00;0.22;115.87;0.00;0.00;0.62;;;;;18.60;1.00;;;;;;2280212;61;1046;-85
2020/12/23 09:38:13;21051.00;0.07;37.09;0.00;0.00;0.62;;;;;18.70;1.00;;;;;;2280165;61;1398;-85
2020/12/23 09:40:43;0.00;0.00;0.62;0.00;0.00;0.62;;;;;18.70;1.00;;;;;;2280189;61;1074;-85
2020/12/23 09:43:11;36374.00;0.12;63.61;0.00;0.00;0.62;;;;;18.80;1.00;;;;;;2280272;61;1009;-85
2020/12/23 09:45:38;0.00;0.00;0.62;0.00;0.00;0.62;;;;;18.80;1.00;;;;;;2282041;60;1770;-84
2020/12/23 09:48:04;0.00;0.00;0.62;0.00;0.00;0.62;;;;;18.70;1.00;;;;;;2284707;60;1994;-86
2020/12/23 09:50:31;8321.00;0.03;15.04;0.00;0.00;0.62;;;;;18.80;1.00;;;;;;2284792;60;916;-84
2020/12/23 09:52:57;50113.00;0.17;87.38;0.00;0.00;0.62;;;;;18.90;1.00;;;;;;2284782;60;998;-86
2020/12/23 09:55:25;37050.00;0.12;64.78;0.00;0.00;0.62;;;;;19.00;1.00;;;;;;2277633;60;984;-85
2020/12/23 09:57:51;0.00;0.00;0.62;0.00;0.00;0.62;;;;;19.20;1.00;;;;;;2284696;60;1407;-87
2020/12/23 10:00:19;96488.00;0.32;167.51;0.00;0.00;0.62;;;;;19.30;1.00;;;;;;2284754;60;1011;-85
2020/12/23 10:02:45;0.00;0.00;0.62;0.00;0.00;0.62;;;;;19.30;1.00;;;;;;2284741;60;1132;-84
2020/12/23 10:05:12;0.00;0.00;0.62;0.00;0.00;0.62;;;;;19.20;1.00;;;;;;2284741;60;1006;-84
2020/12/23 10:07:38;0.00;0.00;0.62;0.00;0.00;0.62;;;;;19.10;1.00;;;;;;2284667;60;2006;-85
2020/12/23 10:10:05;0.00;0.00;0.62;0.00;0.00;0.62;;;;;19.00;1.00;;;;;;2284734;60;1097;-84
2020/12/23 10:12:33;42424.00;0.14;74.08;0.00;0.00;0.62;;;;;19.10;1.00;;;;;;2284750;60;953;-85
2020/12/23 10:15:00;51133.00;0.17;89.15;0.00;0.00;0.62;;;;;19.20;1.00;;;;;;2284652;60;1753;-85
2020/12/23 10:17:26;39377.00;0.13;68.81;0.00;0.00;0.62;;;;;19.10;1.00;;;;;;2284709;60;1382;-84
2020/12/23 10:19:53;0.00;0.00;0.62;0.00;0.00;0.62;;;;;19.30;1.00;;;;;;2284662;60;1065;-84
2020/12/23 10:22:19;0.00;0.00;0.62;0.00;0.00;0.62;;;;;19.50;1.00;;;;;;2284550;60;922;-87
2020/12/23 10:24:45;0.00;0.00;0.62;0.00;0.00;0.62;;;;;19.60;1.00;;;;;;2284684;60;1758;-85
2020/12/23 10:27:13;53087.00;0.18;92.52;0.00;0.00;0.62;;;;;19.70;1.00;;;;;;2284608;60;2000;-85
2020/12/23 10:29:40;0.00;0.00;0.62;0.00;0.00;0.62;;;;;19.70;1.00;;;;;;2284668;60;1081;-85
2020/12/23 10:32:07;0.00;0.00;0.62;0.00;0.00;0.62;;;;;19.60;1.00;;;;;;2284675;60;1010;-85
2020/12/23 10:34:33;0.00;0.00;0.62;0.00;0.00;0.62;;;;;19.70;1.00;;;;;;2284595;60;1079;-85
2020/12/23 10:37:00;0.00;0.00;0.62;0.00;0.00;0.62;;;;;19.60;1.00;;;;;;2284594;60;1319;-86
2020/12/23 10:39:26;237300.00;0.79;410.11;85640.00;0.29;148.78;;;;;19.70;1.00;;;;;;2284616;60;1707;-85
2020/12/23 10:41:54;0.00;0.00;0.62;0.00;0.00;0.62;;;;;19.80;1.00;;;;;;2284662;60;1061;-85
2020/12/23 10:44:21;0.00;0.00;0.62;0.00;0.00;0.62;;;;;19.90;1.00;;;;;;2284622;60;1126;-85
2020/12/23 10:46:52;187047.00;0.62;323.62;54796.00;0.18;95.48;;;;;20.00;1.00;;;;;;2284619;60;1270;-85
2020/12/23 10:49:18;0.00;0.00;0.62;0.00;0.00;0.62;;;;;20.00;1.00;;;;;;2284585;60;1928;-85
2020/12/23 10:51:48;0.00;0.00;0.62;0.00;0.00;0.62;;;;;20.10;1.00;;;;;;2284519;60;1018;-85
2020/12/23 10:54:15;0.00;0.00;0.62;0.00;0.00;0.62;;;;;20.00;1.00;;;;;;2284519;60;1114;-85
2020/12/23 10:56:41;0.00;0.00;0.62;0.00;0.00;0.62;;;;;20.10;1.00;;;;;;2284541;60;1423;-85
2020/12/23 10:59:08;0.00;0.00;0.62;0.00;0.00;0.62;;;;;20.20;1.00;;;;;;2284480;60;1104;-85
2020/12/23 11:01:34;0.00;0.00;0.62;0.00;0.00;0.62;;;;;19.80;1.00;;;;;;2284493;60;926;-86
2020/12/23 11:04:02;1913.00;0.01;3.94;0.00;0.00;0.62;;;;;19.70;1.00;;;;;;2284548;60;1117;-85
2020/12/23 11:06:28;59114.00;0.20;102.95;0.00;0.00;0.62;;;;;19.80;1.00;;;;;;2284546;60;1143;-85